sensor_id;sensor_type;location;lat;lon;timestamp;P1;durP1;ratioP1;P2;durP2;ratioP2
9228;SDS011;4649;42.644;23.284;2023-03-25T00:55:53;6.63;;;5.83;;
9228;SDS011;4649;42.644;23.284;2023-03-25T01:04:34;7.40;;;5.43;;
9228;SDS011;4649;42.644;23.284;2023-03-25T01:07:53;5.57;;;5.17;;
9228;SDS011;4649;42.644;23.284;2023-03-25T01:11:16;6.27;;;5.77;;
9228;SDS011;4649;42.644;23.284;2023-03-25T01:34:19;8.77;;;5.20;;
9228;SDS011;4649;42.644;23.284;2023-03-25T01:47:33;5.37;;;5.07;;
9228;SDS011;4649;42.644;23.284;2023-03-25T01:50:38;6.03;;;5.53;;
9228;SDS011;4649;42.644;23.284;2023-03-25T01:54:10;6.37;;;4.83;;
9228;SDS011;4649;42.644;23.284;2023-03-25T01:57:29;6.13;;;5.63;;
9228;SDS011;4649;42.644;23.284;2023-03-25T02:00:34;6.17;;;5.67;;
9228;SDS011;4649;42.644;23.284;2023-03-25T05:48:55;7.00;;;6.60;;
9228;SDS011;4649;42.644;23.284;2023-03-25T05:51:25;6.27;;;5.67;;
9228;SDS011;4649;42.644;23.284;2023-03-25T05:53:52;6.33;;;4.53;;
9228;SDS011;4649;42.644;23.284;2023-03-25T05:56:19;4.00;;;3.80;;
9228;SDS011;4649;42.644;23.284;2023-03-25T05:58:49;4.67;;;4.40;;
9228;SDS011;4649;42.644;23.284;2023-03-25T06:01:17;4.90;;;4.23;;
9228;SDS011;4649;42.644;23.284;2023-03-25T06:03:45;5.60;;;4.70;;
9228;SDS011;4649;42.644;23.284;2023-03-25T06:06:13;6.85;;;6.20;;
9228;SDS011;4649;42.644;23.284;2023-03-25T06:08:43;5.50;;;5.00;;
9228;SDS011;4649;42.644;23.284;2023-03-25T06:11:11;5.22;;;4.43;;
9228;SDS011;4649;42.644;23.284;2023-03-25T06:13:40;4.75;;;4.55;;
9228;SDS011;4649;42.644;23.284;2023-03-25T06:16:14;17.40;;;5.50;;
9228;SDS011;4649;42.644;23.284;2023-03-25T06:18:44;4.88;;;4.45;;
9228;SDS011;4649;42.644;23.284;2023-03-25T06:21:16;10.50;;;4.88;;
9228;SDS011;4649;42.644;23.284;2023-03-25T06:23:44;7.63;;;4.95;;
9228;SDS011;4649;42.644;23.284;2023-03-25T06:26:12;5.65;;;5.35;;
9228;SDS011;4649;42.644;23.284;2023-03-25T06:28:39;4.95;;;4.63;;
9228;SDS011;4649;42.644;23.284;2023-03-25T06:31:10;4.10;;;3.90;;
9228;SDS011;4649;42.644;23.284;2023-03-25T06:33:38;10.50;;;5.50;;
9228;SDS011;4649;42.644;23.284;2023-03-25T06:36:06;4.50;;;4.30;;
9228;SDS011;4649;42.644;23.284;2023-03-25T06:38:36;8.15;;;4.53;;
9228;SDS011;4649;42.644;23.284;2023-03-25T06:41:04;4.63;;;4.28;;
9228;SDS011;4649;42.644;23.284;2023-03-25T06:43:31;5.00;;;4.53;;
9228;SDS011;4649;42.644;23.284;2023-03-25T06:45:58;4.80;;;4.28;;
9228;SDS011;4649;42.644;23.284;2023-03-25T06:48:25;7.68;;;7.07;;
9228;SDS011;4649;42.644;23.284;2023-03-25T06:50:52;5.43;;;4.97;;
9228;SDS011;4649;42.644;23.284;2023-03-25T06:53:19;5.80;;;4.60;;
9228;SDS011;4649;42.644;23.284;2023-03-25T06:55:47;5.28;;;4.88;;
9228;SDS011;4649;42.644;23.284;2023-03-25T06:58:14;10.35;;;8.20;;
9228;SDS011;4649;42.644;23.284;2023-03-25T07:00:41;4.65;;;4.40;;
9228;SDS011;4649;42.644;23.284;2023-03-25T07:03:09;9.48;;;4.93;;
9228;SDS011;4649;42.644;23.284;2023-03-25T07:05:36;4.88;;;4.50;;
9228;SDS011;4649;42.644;23.284;2023-03-25T07:08:03;4.22;;;4.03;;
9228;SDS011;4649;42.644;23.284;2023-03-25T07:10:33;4.68;;;4.30;;
9228;SDS011;4649;42.644;23.284;2023-03-25T07:13:01;5.30;;;5.00;;
9228;SDS011;4649;42.644;23.284;2023-03-25T07:15:28;5.75;;;5.30;;
9228;SDS011;4649;42.644;23.284;2023-03-25T07:17:55;5.22;;;4.82;;
9228;SDS011;4649;42.644;23.284;2023-03-25T07:20:22;5.00;;;4.60;;
9228;SDS011;4649;42.644;23.284;2023-03-25T07:22:48;4.93;;;4.63;;
9228;SDS011;4649;42.644;23.284;2023-03-25T07:25:15;5.45;;;5.03;;
9228;SDS011;4649;42.644;23.284;2023-03-25T07:27:42;8.43;;;4.80;;
9228;SDS011;4649;42.644;23.284;2023-03-25T07:30:10;6.63;;;4.32;;
9228;SDS011;4649;42.644;23.284;2023-03-25T07:32:37;5.35;;;4.88;;
9228;SDS011;4649;42.644;23.284;2023-03-25T07:35:04;7.30;;;5.00;;
9228;SDS011;4649;42.644;23.284;2023-03-25T07:37:33;5.97;;;5.30;;
9228;SDS011;4649;42.644;23.284;2023-03-25T07:40:00;5.85;;;4.93;;
9228;SDS011;4649;42.644;23.284;2023-03-25T07:42:27;7.70;;;5.05;;
9228;SDS011;4649;42.644;23.284;2023-03-25T07:44:54;9.02;;;5.40;;
9228;SDS011;4649;42.644;23.284;2023-03-25T07:47:22;9.65;;;4.78;;
9228;SDS011;4649;42.644;23.284;2023-03-25T07:49:48;5.63;;;4.85;;
9228;SDS011;4649;42.644;23.284;2023-03-25T07:52:15;6.70;;;4.85;;
9228;SDS011;4649;42.644;23.284;2023-03-25T07:54:42;8.80;;;5.80;;
9228;SDS011;4649;42.644;23.284;2023-03-25T07:57:09;5.82;;;5.32;;
9228;SDS011;4649;42.644;23.284;2023-03-25T07:59:35;6.45;;;5.20;;
9228;SDS011;4649;42.644;23.284;2023-03-25T08:02:02;6.43;;;5.90;;
9228;SDS011;4649;42.644;23.284;2023-03-25T08:04:30;6.70;;;5.60;;
9228;SDS011;4649;42.644;23.284;2023-03-25T08:06:57;7.88;;;7.00;;
9228;SDS011;4649;42.644;23.284;2023-03-25T08:09:24;7.45;;;6.75;;
9228;SDS011;4649;42.644;23.284;2023-03-25T08:11:51;13.05;;;5.88;;
9228;SDS011;4649;42.644;23.284;2023-03-25T08:14:18;8.13;;;6.60;;
9228;SDS011;4649;42.644;23.284;2023-03-25T08:16:45;6.40;;;5.80;;
9228;SDS011;4649;42.644;23.284;2023-03-25T08:19:12;9.73;;;7.63;;
9228;SDS011;4649;42.644;23.284;2023-03-25T08:21:40;7.65;;;6.47;;
9228;SDS011;4649;42.644;23.284;2023-03-25T08:24:07;7.68;;;6.97;;
9228;SDS011;4649;42.644;23.284;2023-03-25T08:26:35;8.15;;;6.13;;
9228;SDS011;4649;42.644;23.284;2023-03-25T08:29:02;8.52;;;6.03;;
9228;SDS011;4649;42.644;23.284;2023-03-25T08:31:47;7.63;;;6.93;;
9228;SDS011;4649;42.644;23.284;2023-03-25T08:34:16;12.40;;;7.35;;
9228;SDS011;4649;42.644;23.284;2023-03-25T08:36:46;7.90;;;6.68;;
9228;SDS011;4649;42.644;23.284;2023-03-25T08:39:14;8.05;;;7.30;;
9228;SDS011;4649;42.644;23.284;2023-03-25T08:41:41;8.40;;;6.85;;
9228;SDS011;4649;42.644;23.284;2023-03-25T08:44:09;8.63;;;7.90;;
9228;SDS011;4649;42.644;23.284;2023-03-25T08:46:36;9.43;;;7.63;;
9228;SDS011;4649;42.644;23.284;2023-03-25T08:49:03;9.13;;;8.10;;
9228;SDS011;4649;42.644;23.284;2023-03-25T08:51:30;9.15;;;7.53;;
9228;SDS011;4649;42.644;23.284;2023-03-25T08:53:58;10.60;;;8.05;;
9228;SDS011;4649;42.644;23.284;2023-03-25T08:56:26;12.68;;;11.32;;
9228;SDS011;4649;42.644;23.284;2023-03-25T08:58:52;18.23;;;10.55;;
9228;SDS011;4649;42.644;23.284;2023-03-25T09:01:19;14.52;;;9.85;;
9228;SDS011;4649;42.644;23.284;2023-03-25T09:03:48;21.35;;;11.73;;
9228;SDS011;4649;42.644;23.284;2023-03-25T09:06:15;11.57;;;10.67;;
9228;SDS011;4649;42.644;23.284;2023-03-25T09:08:42;17.30;;;10.43;;
9228;SDS011;4649;42.644;23.284;2023-03-25T09:11:10;14.93;;;9.70;;
9228;SDS011;4649;42.644;23.284;2023-03-25T09:13:37;10.63;;;9.20;;
9228;SDS011;4649;42.644;23.284;2023-03-25T09:16:04;10.50;;;9.50;;
9228;SDS011;4649;42.644;23.284;2023-03-25T09:18:31;10.13;;;8.60;;
9228;SDS011;4649;42.644;23.284;2023-03-25T09:21:01;14.13;;;9.27;;
9228;SDS011;4649;42.644;23.284;2023-03-25T09:23:28;15.50;;;13.50;;
9228;SDS011;4649;42.644;23.284;2023-03-25T09:25:58;13.57;;;9.17;;
9228;SDS011;4649;42.644;23.284;2023-03-25T09:28:27;13.40;;;8.43;;
9228;SDS011;4649;42.644;23.284;2023-03-25T09:30:54;9.87;;;7.70;;
9228;SDS011;4649;42.644;23.284;2023-03-25T09:33:21;11.00;;;7.93;;
9228;SDS011;4649;42.644;23.284;2023-03-25T09:35:48;10.00;;;8.77;;
9228;SDS011;4649;42.644;23.284;2023-03-25T09:38:15;10.40;;;8.60;;
9228;SDS011;4649;42.644;23.284;2023-03-25T09:40:42;8.97;;;8.27;;
9228;SDS011;4649;42.644;23.284;2023-03-25T09:43:15;12.93;;;8.57;;
9228;SDS011;4649;42.644;23.284;2023-03-25T09:45:52;12.73;;;8.80;;
9228;SDS011;4649;42.644;23.284;2023-03-25T09:48:23;8.87;;;8.37;;
9228;SDS011;4649;42.644;23.284;2023-03-25T09:50:54;13.57;;;9.33;;
9228;SDS011;4649;42.644;23.284;2023-03-25T09:53:26;10.97;;;9.83;;
9228;SDS011;4649;42.644;23.284;2023-03-25T09:55:57;16.50;;;9.47;;
9228;SDS011;4649;42.644;23.284;2023-03-25T09:58:27;10.10;;;9.20;;
9228;SDS011;4649;42.644;23.284;2023-03-25T10:01:04;9.23;;;8.60;;
9228;SDS011;4649;42.644;23.284;2023-03-25T10:03:53;12.87;;;8.00;;
9228;SDS011;4649;42.644;23.284;2023-03-25T10:06:29;9.50;;;7.53;;
9228;SDS011;4649;42.644;23.284;2023-03-25T10:09:11;9.57;;;7.60;;
9228;SDS011;4649;42.644;23.284;2023-03-25T10:11:53;11.73;;;8.47;;
9228;SDS011;4649;42.644;23.284;2023-03-25T10:14:26;9.70;;;7.43;;
9228;SDS011;4649;42.644;23.284;2023-03-25T10:17:02;9.27;;;7.17;;
9228;SDS011;4649;42.644;23.284;2023-03-25T10:19:42;7.90;;;6.80;;
9228;SDS011;4649;42.644;23.284;2023-03-25T10:22:26;5.93;;;5.47;;
9228;SDS011;4649;42.644;23.284;2023-03-25T10:25:38;6.63;;;6.00;;
9228;SDS011;4649;42.644;23.284;2023-03-25T10:28:11;5.90;;;5.30;;
9228;SDS011;4649;42.644;23.284;2023-03-25T10:30:46;13.40;;;5.70;;
9228;SDS011;4649;42.644;23.284;2023-03-25T10:33:20;6.43;;;4.17;;
9228;SDS011;4649;42.644;23.284;2023-03-25T10:35:53;5.53;;;3.90;;
9228;SDS011;4649;42.644;23.284;2023-03-25T10:38:23;4.70;;;4.30;;
9228;SDS011;4649;42.644;23.284;2023-03-25T10:40:51;10.77;;;4.83;;
9228;SDS011;4649;42.644;23.284;2023-03-25T10:43:24;5.13;;;4.00;;
9228;SDS011;4649;42.644;23.284;2023-03-25T10:45:55;3.83;;;3.53;;
9228;SDS011;4649;42.644;23.284;2023-03-25T10:48:27;11.13;;;3.77;;
9228;SDS011;4649;42.644;23.284;2023-03-25T10:50:58;6.10;;;3.20;;
9228;SDS011;4649;42.644;23.284;2023-03-25T10:53:29;4.37;;;3.40;;
9228;SDS011;4649;42.644;23.284;2023-03-25T10:55:59;4.10;;;3.37;;
9228;SDS011;4649;42.644;23.284;2023-03-25T10:58:28;3.63;;;3.30;;
9228;SDS011;4649;42.644;23.284;2023-03-25T11:00:55;3.63;;;3.40;;
9228;SDS011;4649;42.644;23.284;2023-03-25T11:03:25;5.63;;;3.77;;
9228;SDS011;4649;42.644;23.284;2023-03-25T11:05:58;4.77;;;3.77;;
9228;SDS011;4649;42.644;23.284;2023-03-25T11:08:25;3.33;;;3.00;;
9228;SDS011;4649;42.644;23.284;2023-03-25T11:10:53;4.23;;;3.30;;
9228;SDS011;4649;42.644;23.284;2023-03-25T11:13:22;3.93;;;2.90;;
9228;SDS011;4649;42.644;23.284;2023-03-25T11:15:51;3.40;;;3.20;;
9228;SDS011;4649;42.644;23.284;2023-03-25T11:18:21;6.27;;;3.80;;
9228;SDS011;4649;42.644;23.284;2023-03-25T11:20:54;4.33;;;3.93;;
9228;SDS011;4649;42.644;23.284;2023-03-25T11:23:24;3.23;;;3.03;;
9228;SDS011;4649;42.644;23.284;2023-03-25T11:25:53;3.63;;;3.43;;
9228;SDS011;4649;42.644;23.284;2023-03-25T11:28:22;2.97;;;2.77;;
9228;SDS011;4649;42.644;23.284;2023-03-25T11:31:04;3.57;;;3.27;;
9228;SDS011;4649;42.644;23.284;2023-03-25T11:33:33;7.47;;;2.97;;
9228;SDS011;4649;42.644;23.284;2023-03-25T11:36:10;4.20;;;3.03;;
9228;SDS011;4649;42.644;23.284;2023-03-25T11:38:44;4.03;;;2.30;;
9228;SDS011;4649;42.644;23.284;2023-03-25T11:41:12;2.80;;;2.10;;
9228;SDS011;4649;42.644;23.284;2023-03-25T11:43:39;2.77;;;2.67;;
9228;SDS011;4649;42.644;23.284;2023-03-25T11:46:07;2.57;;;2.40;;
9228;SDS011;4649;42.644;23.284;2023-03-25T11:48:35;4.10;;;2.30;;
9228;SDS011;4649;42.644;23.284;2023-03-25T11:51:05;2.83;;;2.73;;
9228;SDS011;4649;42.644;23.284;2023-03-25T11:53:41;3.77;;;2.80;;
9228;SDS011;4649;42.644;23.284;2023-03-25T11:56:14;2.47;;;2.37;;
9228;SDS011;4649;42.644;23.284;2023-03-25T11:58:44;3.33;;;3.03;;
9228;SDS011;4649;42.644;23.284;2023-03-25T12:01:19;2.90;;;2.53;;
9228;SDS011;4649;42.644;23.284;2023-03-25T12:03:50;2.57;;;2.37;;
9228;SDS011;4649;42.644;23.284;2023-03-25T12:06:18;5.37;;;2.50;;
9228;SDS011;4649;42.644;23.284;2023-03-25T12:08:51;3.00;;;2.80;;
9228;SDS011;4649;42.644;23.284;2023-03-25T12:11:22;4.40;;;2.50;;
9228;SDS011;4649;42.644;23.284;2023-03-25T12:14:07;4.37;;;2.50;;
9228;SDS011;4649;42.644;23.284;2023-03-25T12:16:44;6.60;;;2.80;;
9228;SDS011;4649;42.644;23.284;2023-03-25T12:19:17;2.37;;;2.27;;
9228;SDS011;4649;42.644;23.284;2023-03-25T12:21:57;2.30;;;2.20;;
9228;SDS011;4649;42.644;23.284;2023-03-25T12:24:35;2.30;;;2.20;;
9228;SDS011;4649;42.644;23.284;2023-03-25T12:27:19;2.90;;;2.80;;
9228;SDS011;4649;42.644;23.284;2023-03-25T12:29:55;10.43;;;2.80;;
9228;SDS011;4649;42.644;23.284;2023-03-25T12:32:31;7.27;;;2.70;;
9228;SDS011;4649;42.644;23.284;2023-03-25T12:35:17;2.50;;;2.40;;
9228;SDS011;4649;42.644;23.284;2023-03-25T12:37:56;3.43;;;2.73;;
9228;SDS011;4649;42.644;23.284;2023-03-25T12:40:43;6.00;;;3.00;;
9228;SDS011;4649;42.644;23.284;2023-03-25T12:43:31;10.17;;;2.60;;
9228;SDS011;4649;42.644;23.284;2023-03-25T12:46:11;2.60;;;2.40;;
9228;SDS011;4649;42.644;23.284;2023-03-25T12:48:52;5.57;;;2.70;;
9228;SDS011;4649;42.644;23.284;2023-03-25T12:51:32;2.40;;;2.30;;
9228;SDS011;4649;42.644;23.284;2023-03-25T12:54:08;2.97;;;2.77;;
9228;SDS011;4649;42.644;23.284;2023-03-25T12:56:51;2.20;;;2.10;;
9228;SDS011;4649;42.644;23.284;2023-03-25T12:59:32;4.27;;;2.87;;
9228;SDS011;4649;42.644;23.284;2023-03-25T13:02:25;4.83;;;2.70;;
9228;SDS011;4649;42.644;23.284;2023-03-25T13:05:12;4.30;;;2.67;;
9228;SDS011;4649;42.644;23.284;2023-03-25T13:07:43;7.57;;;2.90;;
9228;SDS011;4649;42.644;23.284;2023-03-25T13:10:15;4.43;;;2.23;;
9228;SDS011;4649;42.644;23.284;2023-03-25T13:12:47;2.53;;;2.43;;
9228;SDS011;4649;42.644;23.284;2023-03-25T13:15:17;3.13;;;2.93;;
9228;SDS011;4649;42.644;23.284;2023-03-25T13:17:47;3.53;;;2.33;;
9228;SDS011;4649;42.644;23.284;2023-03-25T13:20:21;2.90;;;2.70;;
9228;SDS011;4649;42.644;23.284;2023-03-25T13:22:51;2.90;;;2.80;;
9228;SDS011;4649;42.644;23.284;2023-03-25T13:25:25;3.00;;;2.80;;
9228;SDS011;4649;42.644;23.284;2023-03-25T13:27:57;7.33;;;2.33;;
9228;SDS011;4649;42.644;23.284;2023-03-25T13:30:29;2.50;;;2.40;;
9228;SDS011;4649;42.644;23.284;2023-03-25T13:32:59;2.83;;;2.73;;
9228;SDS011;4649;42.644;23.284;2023-03-25T13:35:36;2.67;;;2.50;;
9228;SDS011;4649;42.644;23.284;2023-03-25T13:38:11;4.60;;;2.63;;
9228;SDS011;4649;42.644;23.284;2023-03-25T13:40:44;3.20;;;3.00;;
9228;SDS011;4649;42.644;23.284;2023-03-25T13:43:22;8.37;;;3.10;;
9228;SDS011;4649;42.644;23.284;2023-03-25T13:45:56;3.03;;;2.77;;
9228;SDS011;4649;42.644;23.284;2023-03-25T13:48:30;6.23;;;3.00;;
9228;SDS011;4649;42.644;23.284;2023-03-25T13:51:05;8.57;;;2.90;;
9228;SDS011;4649;42.644;23.284;2023-03-25T13:53:34;2.90;;;2.70;;
9228;SDS011;4649;42.644;23.284;2023-03-25T13:56:19;2.63;;;2.43;;
9228;SDS011;4649;42.644;23.284;2023-03-25T13:59:13;4.30;;;3.13;;
9228;SDS011;4649;42.644;23.284;2023-03-25T14:02:00;3.20;;;3.00;;
9228;SDS011;4649;42.644;23.284;2023-03-25T14:04:49;3.10;;;2.90;;
9228;SDS011;4649;42.644;23.284;2023-03-25T14:07:34;2.53;;;2.43;;
9228;SDS011;4649;42.644;23.284;2023-03-25T14:23:53;2.63;;;2.53;;
9228;SDS011;4649;42.644;23.284;2023-03-25T14:37:51;2.53;;;2.33;;
9228;SDS011;4649;42.644;23.284;2023-03-25T15:15:51;2.87;;;2.70;;
9228;SDS011;4649;42.644;23.284;2023-03-25T15:22:28;4.00;;;3.80;;
9228;SDS011;4649;42.644;23.284;2023-03-25T15:25:39;3.20;;;3.00;;
9228;SDS011;4649;42.644;23.284;2023-03-25T15:28:10;2.90;;;2.80;;
9228;SDS011;4649;42.644;23.284;2023-03-25T17:24:24;3.07;;;2.87;;
9228;SDS011;4649;42.644;23.284;2023-03-25T17:27:38;3.30;;;2.43;;
9228;SDS011;4649;42.644;23.284;2023-03-25T17:30:15;2.60;;;2.40;;
9228;SDS011;4649;42.644;23.284;2023-03-25T17:35:29;3.30;;;3.20;;
9228;SDS011;4649;42.644;23.284;2023-03-25T17:38:47;3.33;;;3.23;;
9228;SDS011;4649;42.644;23.284;2023-03-25T17:45:04;3.10;;;2.90;;
9228;SDS011;4649;42.644;23.284;2023-03-25T17:50:34;3.40;;;3.20;;
9228;SDS011;4649;42.644;23.284;2023-03-25T17:53:17;3.37;;;3.20;;
9228;SDS011;4649;42.644;23.284;2023-03-25T18:08:45;2.50;;;2.40;;
9228;SDS011;4649;42.644;23.284;2023-03-25T18:14:07;2.77;;;2.67;;
9228;SDS011;4649;42.644;23.284;2023-03-25T18:17:11;4.07;;;3.20;;
9228;SDS011;4649;42.644;23.284;2023-03-25T18:20:16;2.80;;;2.70;;
9228;SDS011;4649;42.644;23.284;2023-03-25T18:23:00;2.43;;;2.33;;
9228;SDS011;4649;42.644;23.284;2023-03-25T18:31:53;2.50;;;2.40;;
9228;SDS011;4649;42.644;23.284;2023-03-25T18:36:56;4.20;;;3.03;;
9228;SDS011;4649;42.644;23.284;2023-03-25T18:50:21;2.10;;;2.00;;
9228;SDS011;4649;42.644;23.284;2023-03-25T18:56:28;2.20;;;2.10;;
9228;SDS011;4649;42.644;23.284;2023-03-25T18:59:03;2.57;;;2.47;;
9228;SDS011;4649;42.644;23.284;2023-03-25T19:01:45;2.87;;;2.67;;
9228;SDS011;4649;42.644;23.284;2023-03-25T19:07:55;3.30;;;3.10;;
9228;SDS011;4649;42.644;23.284;2023-03-25T19:10:38;2.00;;;2.00;;
9228;SDS011;4649;42.644;23.284;2023-03-25T19:16:14;2.30;;;2.20;;
9228;SDS011;4649;42.644;23.284;2023-03-25T19:19:29;3.23;;;2.50;;
9228;SDS011;4649;42.644;23.284;2023-03-25T19:46:19;3.23;;;2.93;;
9228;SDS011;4649;42.644;23.284;2023-03-25T19:49:12;2.93;;;2.83;;
9228;SDS011;4649;42.644;23.284;2023-03-25T19:51:40;2.87;;;2.73;;
9228;SDS011;4649;42.644;23.284;2023-03-25T19:54:09;3.03;;;2.83;;
9228;SDS011;4649;42.644;23.284;2023-03-25T19:56:50;2.60;;;2.50;;
9228;SDS011;4649;42.644;23.284;2023-03-25T19:59:47;2.70;;;2.60;;
9228;SDS011;4649;42.644;23.284;2023-03-25T20:02:27;2.90;;;2.80;;
9228;SDS011;4649;42.644;23.284;2023-03-25T20:08:37;3.80;;;3.60;;
9228;SDS011;4649;42.644;23.284;2023-03-25T20:17:30;3.23;;;2.93;;
9228;SDS011;4649;42.644;23.284;2023-03-25T20:20:02;2.40;;;2.30;;
9228;SDS011;4649;42.644;23.284;2023-03-25T20:23:07;3.07;;;2.87;;
9228;SDS011;4649;42.644;23.284;2023-03-25T20:25:38;2.97;;;2.87;;
9228;SDS011;4649;42.644;23.284;2023-03-25T20:41:06;8.57;;;4.47;;
9228;SDS011;4649;42.644;23.284;2023-03-25T20:43:56;9.13;;;8.23;;
9228;SDS011;4649;42.644;23.284;2023-03-25T20:46:56;12.30;;;11.00;;
9228;SDS011;4649;42.644;23.284;2023-03-25T20:49:30;18.07;;;10.83;;
9228;SDS011;4649;42.644;23.284;2023-03-25T20:51:59;10.43;;;9.37;;
9228;SDS011;4649;42.644;23.284;2023-03-25T20:57:40;9.40;;;8.10;;
9228;SDS011;4649;42.644;23.284;2023-03-25T21:00:17;7.90;;;7.17;;
9228;SDS011;4649;42.644;23.284;2023-03-25T21:02:59;12.83;;;7.63;;
9228;SDS011;4649;42.644;23.284;2023-03-25T21:05:26;9.00;;;8.17;;
9228;SDS011;4649;42.644;23.284;2023-03-25T21:07:54;8.73;;;7.87;;
9228;SDS011;4649;42.644;23.284;2023-03-25T21:10:24;11.90;;;6.33;;
9228;SDS011;4649;42.644;23.284;2023-03-25T21:12:54;8.60;;;7.53;;
9228;SDS011;4649;42.644;23.284;2023-03-25T21:15:35;6.67;;;6.17;;
9228;SDS011;4649;42.644;23.284;2023-03-25T21:18:15;6.50;;;6.00;;
9228;SDS011;4649;42.644;23.284;2023-03-25T21:20:47;5.30;;;4.90;;
9228;SDS011;4649;42.644;23.284;2023-03-25T21:23:32;5.23;;;4.83;;
9228;SDS011;4649;42.644;23.284;2023-03-25T21:29:00;5.23;;;4.83;;
9228;SDS011;4649;42.644;23.284;2023-03-25T21:32:22;5.90;;;5.30;;
9228;SDS011;4649;42.644;23.284;2023-03-25T21:37:42;6.07;;;5.47;;
9228;SDS011;4649;42.644;23.284;2023-03-25T21:40:14;5.40;;;5.00;;
9228;SDS011;4649;42.644;23.284;2023-03-25T21:43:10;9.93;;;4.37;;
9228;SDS011;4649;42.644;23.284;2023-03-25T21:45:47;5.47;;;5.07;;
9228;SDS011;4649;42.644;23.284;2023-03-25T21:50:53;4.90;;;4.43;;
9228;SDS011;4649;42.644;23.284;2023-03-25T22:21:39;6.37;;;3.67;;
9228;SDS011;4649;42.644;23.284;2023-03-25T22:24:18;4.57;;;4.27;;
9228;SDS011;4649;42.644;23.284;2023-03-25T22:30:45;4.47;;;4.00;;
